sensor_id;sensor_type;location;lat;lon;timestamp;P1;durP1;ratioP1;P2;durP2;ratioP2
58820;SDS011;70670;52.476;13.334;2023-10-09T00:02:09;4.10;;;1.80;;
58820;SDS011;70670;52.476;13.334;2023-10-09T00:04:37;3.60;;;1.58;;
58820;SDS011;70670;52.476;13.334;2023-10-09T00:07:06;2.42;;;1.80;;
58820;SDS011;70670;52.476;13.334;2023-10-09T00:09:35;4.18;;;1.70;;
58820;SDS011;70670;52.476;13.334;2023-10-09T00:12:13;2.33;;;1.73;;
58820;SDS011;70670;52.476;13.334;2023-10-09T00:14:41;5.03;;;1.80;;
58820;SDS011;70670;52.476;13.334;2023-10-09T00:17:13;3.03;;;1.95;;
58820;SDS011;70670;52.476;13.334;2023-10-09T00:19:43;4.45;;;1.80;;
58820;SDS011;70670;52.476;13.334;2023-10-09T00:22:09;4.70;;;1.98;;
58820;SDS011;70670;52.476;13.334;2023-10-09T00:24:42;3.92;;;1.67;;
58820;SDS011;70670;52.476;13.334;2023-10-09T00:27:11;6.00;;;1.85;;
58820;SDS011;70670;52.476;13.334;2023-10-09T00:29:40;3.00;;;2.00;;
58820;SDS011;70670;52.476;13.334;2023-10-09T00:32:13;4.70;;;2.00;;
58820;SDS011;70670;52.476;13.334;2023-10-09T00:34:52;3.57;;;1.80;;
58820;SDS011;70670;52.476;13.334;2023-10-09T00:37:23;5.30;;;1.92;;
58820;SDS011;70670;52.476;13.334;2023-10-09T00:39:52;4.00;;;1.95;;
58820;SDS011;70670;52.476;13.334;2023-10-09T00:42:22;5.18;;;2.25;;
58820;SDS011;70670;52.476;13.334;2023-10-09T00:45:00;2.78;;;1.90;;
58820;SDS011;70670;52.476;13.334;2023-10-09T00:47:33;2.70;;;2.25;;
58820;SDS011;70670;52.476;13.334;2023-10-09T00:50:00;2.92;;;1.67;;
58820;SDS011;70670;52.476;13.334;2023-10-09T00:52:37;3.80;;;1.88;;
58820;SDS011;70670;52.476;13.334;2023-10-09T00:55:05;3.07;;;1.80;;
58820;SDS011;70670;52.476;13.334;2023-10-09T00:57:42;3.35;;;2.00;;
58820;SDS011;70670;52.476;13.334;2023-10-09T01:00:22;4.28;;;2.00;;
58820;SDS011;70670;52.476;13.334;2023-10-09T01:03:06;4.45;;;2.45;;
58820;SDS011;70670;52.476;13.334;2023-10-09T01:05:58;5.70;;;2.20;;
58820;SDS011;70670;52.476;13.334;2023-10-09T01:08:39;4.45;;;1.98;;
58820;SDS011;70670;52.476;13.334;2023-10-09T01:11:05;4.05;;;2.42;;
58820;SDS011;70670;52.476;13.334;2023-10-09T01:13:49;5.03;;;2.25;;
58820;SDS011;70670;52.476;13.334;2023-10-09T01:16:15;5.43;;;2.40;;
58820;SDS011;70670;52.476;13.334;2023-10-09T01:18:42;4.53;;;2.40;;
58820;SDS011;70670;52.476;13.334;2023-10-09T01:21:09;5.32;;;2.67;;
58820;SDS011;70670;52.476;13.334;2023-10-09T01:23:43;5.43;;;2.30;;
58820;SDS011;70670;52.476;13.334;2023-10-09T01:26:29;3.30;;;2.20;;
58820;SDS011;70670;52.476;13.334;2023-10-09T01:29:11;8.57;;;2.70;;
58820;SDS011;70670;52.476;13.334;2023-10-09T01:31:43;6.57;;;2.42;;
58820;SDS011;70670;52.476;13.334;2023-10-09T01:34:22;3.50;;;2.45;;
58820;SDS011;70670;52.476;13.334;2023-10-09T01:37:04;7.25;;;2.53;;
58820;SDS011;70670;52.476;13.334;2023-10-09T01:39:36;4.32;;;2.10;;
58820;SDS011;70670;52.476;13.334;2023-10-09T01:42:05;3.97;;;2.60;;
58820;SDS011;70670;52.476;13.334;2023-10-09T01:44:31;4.43;;;2.28;;
58820;SDS011;70670;52.476;13.334;2023-10-09T01:47:04;7.65;;;3.47;;
58820;SDS011;70670;52.476;13.334;2023-10-09T01:49:42;4.93;;;2.67;;
58820;SDS011;70670;52.476;13.334;2023-10-09T01:52:11;2.53;;;1.90;;
58820;SDS011;70670;52.476;13.334;2023-10-09T01:54:41;4.18;;;2.10;;
58820;SDS011;70670;52.476;13.334;2023-10-09T01:57:12;2.97;;;2.22;;
58820;SDS011;70670;52.476;13.334;2023-10-09T01:59:38;4.53;;;2.05;;
58820;SDS011;70670;52.476;13.334;2023-10-09T02:02:21;4.75;;;2.28;;
58820;SDS011;70670;52.476;13.334;2023-10-09T02:04:59;3.65;;;2.20;;
58820;SDS011;70670;52.476;13.334;2023-10-09T02:07:39;4.80;;;2.80;;
58820;SDS011;70670;52.476;13.334;2023-10-09T02:10:20;4.25;;;2.47;;
58820;SDS011;70670;52.476;13.334;2023-10-09T02:12:55;3.42;;;2.20;;
58820;SDS011;70670;52.476;13.334;2023-10-09T02:15:23;6.25;;;2.70;;
58820;SDS011;70670;52.476;13.334;2023-10-09T02:18:08;3.95;;;2.40;;
58820;SDS011;70670;52.476;13.334;2023-10-09T02:23:24;8.35;;;2.70;;
58820;SDS011;70670;52.476;13.334;2023-10-09T02:25:56;7.82;;;2.80;;
58820;SDS011;70670;52.476;13.334;2023-10-09T02:28:22;6.68;;;2.90;;
58820;SDS011;70670;52.476;13.334;2023-10-09T02:30:48;6.72;;;2.78;;
58820;SDS011;70670;52.476;13.334;2023-10-09T02:33:15;10.57;;;3.22;;
58820;SDS011;70670;52.476;13.334;2023-10-09T02:35:45;4.38;;;3.00;;
58820;SDS011;70670;52.476;13.334;2023-10-09T02:38:16;5.57;;;3.30;;
58820;SDS011;70670;52.476;13.334;2023-10-09T02:40:42;5.18;;;3.33;;
58820;SDS011;70670;52.476;13.334;2023-10-09T02:43:27;8.30;;;3.75;;
58820;SDS011;70670;52.476;13.334;2023-10-09T02:46:09;5.35;;;3.40;;
58820;SDS011;70670;52.476;13.334;2023-10-09T02:48:55;6.75;;;3.63;;
58820;SDS011;70670;52.476;13.334;2023-10-09T02:51:22;6.38;;;4.05;;
58820;SDS011;70670;52.476;13.334;2023-10-09T02:53:52;6.00;;;3.78;;
58820;SDS011;70670;52.476;13.334;2023-10-09T02:56:19;9.55;;;3.85;;
58820;SDS011;70670;52.476;13.334;2023-10-09T02:58:50;7.45;;;4.15;;
58820;SDS011;70670;52.476;13.334;2023-10-09T03:01:16;11.30;;;5.00;;
58820;SDS011;70670;52.476;13.334;2023-10-09T03:03:42;7.43;;;4.78;;
58820;SDS011;70670;52.476;13.334;2023-10-09T03:06:15;8.30;;;4.63;;
58820;SDS011;70670;52.476;13.334;2023-10-09T03:08:53;8.45;;;4.00;;
58820;SDS011;70670;52.476;13.334;2023-10-09T03:11:20;5.28;;;3.80;;
58820;SDS011;70670;52.476;13.334;2023-10-09T03:13:46;10.18;;;4.13;;
58820;SDS011;70670;52.476;13.334;2023-10-09T03:16:12;10.55;;;4.82;;
58820;SDS011;70670;52.476;13.334;2023-10-09T03:18:41;6.75;;;4.38;;
58820;SDS011;70670;52.476;13.334;2023-10-09T03:21:07;11.48;;;4.60;;
58820;SDS011;70670;52.476;13.334;2023-10-09T03:23:35;7.50;;;4.63;;
58820;SDS011;70670;52.476;13.334;2023-10-09T03:26:00;8.32;;;4.07;;
58820;SDS011;70670;52.476;13.334;2023-10-09T03:28:26;6.80;;;4.38;;
58820;SDS011;70670;52.476;13.334;2023-10-09T03:30:51;9.15;;;4.60;;
58820;SDS011;70670;52.476;13.334;2023-10-09T03:33:18;8.35;;;4.45;;
58820;SDS011;70670;52.476;13.334;2023-10-09T03:35:44;7.43;;;4.13;;
58820;SDS011;70670;52.476;13.334;2023-10-09T03:38:10;10.82;;;5.25;;
58820;SDS011;70670;52.476;13.334;2023-10-09T03:40:42;8.02;;;4.53;;
58820;SDS011;70670;52.476;13.334;2023-10-09T03:43:09;12.18;;;4.60;;
58820;SDS011;70670;52.476;13.334;2023-10-09T03:45:39;7.82;;;4.32;;
58820;SDS011;70670;52.476;13.334;2023-10-09T03:48:18;11.63;;;4.43;;
58820;SDS011;70670;52.476;13.334;2023-10-09T03:50:51;8.85;;;4.20;;
58820;SDS011;70670;52.476;13.334;2023-10-09T03:53:33;8.20;;;4.13;;
58820;SDS011;70670;52.476;13.334;2023-10-09T03:56:01;8.45;;;4.53;;
58820;SDS011;70670;52.476;13.334;2023-10-09T03:58:40;7.57;;;4.28;;
58820;SDS011;70670;52.476;13.334;2023-10-09T04:01:10;8.82;;;4.60;;
58820;SDS011;70670;52.476;13.334;2023-10-09T04:03:47;9.35;;;4.28;;
58820;SDS011;70670;52.476;13.334;2023-10-09T04:06:12;10.65;;;4.90;;
58820;SDS011;70670;52.476;13.334;2023-10-09T04:08:38;9.15;;;4.53;;
58820;SDS011;70670;52.476;13.334;2023-10-09T04:11:12;5.47;;;3.78;;
58820;SDS011;70670;52.476;13.334;2023-10-09T04:13:44;4.78;;;3.83;;
58820;SDS011;70670;52.476;13.334;2023-10-09T04:16:14;6.05;;;3.97;;
58820;SDS011;70670;52.476;13.334;2023-10-09T04:19:01;10.75;;;4.28;;
58820;SDS011;70670;52.476;13.334;2023-10-09T04:21:36;5.93;;;3.13;;
58820;SDS011;70670;52.476;13.334;2023-10-09T04:24:03;9.70;;;3.28;;
58820;SDS011;70670;52.476;13.334;2023-10-09T04:26:41;5.53;;;3.47;;
58820;SDS011;70670;52.476;13.334;2023-10-09T04:29:10;9.38;;;3.88;;
58820;SDS011;70670;52.476;13.334;2023-10-09T04:31:46;11.52;;;3.75;;
58820;SDS011;70670;52.476;13.334;2023-10-09T04:34:19;7.45;;;3.35;;
58820;SDS011;70670;52.476;13.334;2023-10-09T04:37:02;5.60;;;3.67;;
58820;SDS011;70670;52.476;13.334;2023-10-09T04:39:47;4.85;;;3.00;;
58820;SDS011;70670;52.476;13.334;2023-10-09T04:42:15;8.50;;;3.85;;
58820;SDS011;70670;52.476;13.334;2023-10-09T04:44:50;6.43;;;2.83;;
58820;SDS011;70670;52.476;13.334;2023-10-09T04:47:43;5.25;;;2.45;;
58820;SDS011;70670;52.476;13.334;2023-10-09T04:52:54;8.48;;;3.58;;
58820;SDS011;70670;52.476;13.334;2023-10-09T04:55:20;8.02;;;3.50;;
58820;SDS011;70670;52.476;13.334;2023-10-09T04:57:50;7.35;;;3.70;;
58820;SDS011;70670;52.476;13.334;2023-10-09T05:00:26;4.75;;;3.92;;
58820;SDS011;70670;52.476;13.334;2023-10-09T05:02:52;6.32;;;3.70;;
58820;SDS011;70670;52.476;13.334;2023-10-09T05:05:25;5.65;;;3.95;;
58820;SDS011;70670;52.476;13.334;2023-10-09T05:08:07;6.05;;;3.90;;
58820;SDS011;70670;52.476;13.334;2023-10-09T05:10:43;6.82;;;3.60;;
58820;SDS011;70670;52.476;13.334;2023-10-09T05:13:26;6.68;;;3.53;;
58820;SDS011;70670;52.476;13.334;2023-10-09T05:16:06;9.43;;;4.13;;
58820;SDS011;70670;52.476;13.334;2023-10-09T05:18:50;6.72;;;3.78;;
58820;SDS011;70670;52.476;13.334;2023-10-09T05:21:25;6.00;;;3.92;;
58820;SDS011;70670;52.476;13.334;2023-10-09T05:23:57;11.27;;;3.53;;
58820;SDS011;70670;52.476;13.334;2023-10-09T05:26:38;9.32;;;4.60;;
58820;SDS011;70670;52.476;13.334;2023-10-09T05:29:16;6.85;;;3.88;;
58820;SDS011;70670;52.476;13.334;2023-10-09T05:32:00;7.03;;;3.60;;
58820;SDS011;70670;52.476;13.334;2023-10-09T05:34:39;4.60;;;3.60;;
58820;SDS011;70670;52.476;13.334;2023-10-09T05:37:24;4.97;;;3.40;;
58820;SDS011;70670;52.476;13.334;2023-10-09T05:39:53;12.15;;;3.90;;
58820;SDS011;70670;52.476;13.334;2023-10-09T05:42:24;4.20;;;3.40;;
58820;SDS011;70670;52.476;13.334;2023-10-09T05:44:54;6.85;;;3.70;;
58820;SDS011;70670;52.476;13.334;2023-10-09T05:47:38;7.38;;;3.83;;
58820;SDS011;70670;52.476;13.334;2023-10-09T05:50:05;9.15;;;3.92;;
58820;SDS011;70670;52.476;13.334;2023-10-09T05:52:33;9.60;;;3.92;;
58820;SDS011;70670;52.476;13.334;2023-10-09T05:55:02;7.78;;;4.20;;
58820;SDS011;70670;52.476;13.334;2023-10-09T05:57:47;7.93;;;4.43;;
58820;SDS011;70670;52.476;13.334;2023-10-09T06:00:22;8.18;;;5.00;;
58820;SDS011;70670;52.476;13.334;2023-10-09T06:03:07;9.23;;;4.15;;
58820;SDS011;70670;52.476;13.334;2023-10-09T06:05:47;9.40;;;4.68;;
58820;SDS011;70670;52.476;13.334;2023-10-09T06:08:28;6.18;;;4.72;;
58820;SDS011;70670;52.476;13.334;2023-10-09T06:11:07;9.45;;;4.53;;
58820;SDS011;70670;52.476;13.334;2023-10-09T06:13:52;7.22;;;4.10;;
58820;SDS011;70670;52.476;13.334;2023-10-09T06:16:38;11.00;;;4.75;;
58820;SDS011;70670;52.476;13.334;2023-10-09T06:19:05;7.43;;;4.32;;
58820;SDS011;70670;52.476;13.334;2023-10-09T06:21:34;5.45;;;4.25;;
58820;SDS011;70670;52.476;13.334;2023-10-09T06:24:26;10.02;;;4.75;;
58820;SDS011;70670;52.476;13.334;2023-10-09T06:26:58;8.07;;;4.38;;
58820;SDS011;70670;52.476;13.334;2023-10-09T06:32:09;10.70;;;4.65;;
58820;SDS011;70670;52.476;13.334;2023-10-09T06:34:44;8.82;;;4.47;;
58820;SDS011;70670;52.476;13.334;2023-10-09T06:37:20;8.52;;;4.55;;
58820;SDS011;70670;52.476;13.334;2023-10-09T06:39:49;7.43;;;4.97;;
58820;SDS011;70670;52.476;13.334;2023-10-09T06:42:16;6.72;;;4.47;;
58820;SDS011;70670;52.476;13.334;2023-10-09T06:45:01;7.85;;;4.47;;
58820;SDS011;70670;52.476;13.334;2023-10-09T06:47:36;9.15;;;4.55;;
58820;SDS011;70670;52.476;13.334;2023-10-09T06:50:19;9.45;;;4.45;;
58820;SDS011;70670;52.476;13.334;2023-10-09T06:52:50;10.20;;;4.38;;
58820;SDS011;70670;52.476;13.334;2023-10-09T06:58:20;7.32;;;4.15;;
58820;SDS011;70670;52.476;13.334;2023-10-09T07:00:53;9.95;;;4.07;;
58820;SDS011;70670;52.476;13.334;2023-10-09T07:03:23;11.77;;;4.00;;
58820;SDS011;70670;52.476;13.334;2023-10-09T07:06:08;13.15;;;4.32;;
58820;SDS011;70670;52.476;13.334;2023-10-09T07:08:52;6.97;;;4.28;;
58820;SDS011;70670;52.476;13.334;2023-10-09T07:11:37;7.78;;;4.45;;
58820;SDS011;70670;52.476;13.334;2023-10-09T07:14:10;7.97;;;3.92;;
58820;SDS011;70670;52.476;13.334;2023-10-09T07:16:57;10.82;;;4.03;;
58820;SDS011;70670;52.476;13.334;2023-10-09T07:19:28;8.05;;;4.53;;
58820;SDS011;70670;52.476;13.334;2023-10-09T07:22:21;7.25;;;4.78;;
58820;SDS011;70670;52.476;13.334;2023-10-09T07:24:47;12.35;;;5.25;;
58820;SDS011;70670;52.476;13.334;2023-10-09T07:27:26;8.10;;;5.20;;
58820;SDS011;70670;52.476;13.334;2023-10-09T07:30:19;9.63;;;5.07;;
58820;SDS011;70670;52.476;13.334;2023-10-09T07:33:04;9.30;;;5.78;;
58820;SDS011;70670;52.476;13.334;2023-10-09T07:35:37;6.57;;;5.10;;
58820;SDS011;70670;52.476;13.334;2023-10-09T07:38:10;7.40;;;5.60;;
58820;SDS011;70670;52.476;13.334;2023-10-09T07:40:40;8.65;;;5.55;;
58820;SDS011;70670;52.476;13.334;2023-10-09T07:43:23;7.50;;;5.63;;
58820;SDS011;70670;52.476;13.334;2023-10-09T07:45:56;8.90;;;5.35;;
58820;SDS011;70670;52.476;13.334;2023-10-09T07:48:25;7.60;;;5.05;;
58820;SDS011;70670;52.476;13.334;2023-10-09T07:51:13;8.25;;;5.20;;
58820;SDS011;70670;52.476;13.334;2023-10-09T07:53:38;8.48;;;4.50;;
58820;SDS011;70670;52.476;13.334;2023-10-09T07:56:10;5.88;;;4.75;;
58820;SDS011;70670;52.476;13.334;2023-10-09T07:58:39;5.65;;;3.75;;
58820;SDS011;70670;52.476;13.334;2023-10-09T08:01:12;5.78;;;4.00;;
58820;SDS011;70670;52.476;13.334;2023-10-09T08:03:48;6.72;;;4.18;;
58820;SDS011;70670;52.476;13.334;2023-10-09T08:06:23;6.82;;;5.40;;
58820;SDS011;70670;52.476;13.334;2023-10-09T08:09:05;8.07;;;4.20;;
58820;SDS011;70670;52.476;13.334;2023-10-09T08:11:44;6.22;;;3.88;;
58820;SDS011;70670;52.476;13.334;2023-10-09T08:14:12;8.52;;;4.05;;
58820;SDS011;70670;52.476;13.334;2023-10-09T08:16:48;8.10;;;3.83;;
58820;SDS011;70670;52.476;13.334;2023-10-09T08:19:17;5.05;;;4.13;;
58820;SDS011;70670;52.476;13.334;2023-10-09T08:21:58;7.35;;;3.60;;
58820;SDS011;70670;52.476;13.334;2023-10-09T08:24:45;6.88;;;4.10;;
58820;SDS011;70670;52.476;13.334;2023-10-09T08:27:22;7.07;;;3.70;;
58820;SDS011;70670;52.476;13.334;2023-10-09T08:29:58;10.27;;;4.25;;
58820;SDS011;70670;52.476;13.334;2023-10-09T08:32:53;6.40;;;4.00;;
58820;SDS011;70670;52.476;13.334;2023-10-09T08:35:29;5.55;;;3.97;;
58820;SDS011;70670;52.476;13.334;2023-10-09T08:37:56;10.52;;;4.95;;
58820;SDS011;70670;52.476;13.334;2023-10-09T08:40:31;13.15;;;4.60;;
58820;SDS011;70670;52.476;13.334;2023-10-09T08:43:13;8.93;;;4.95;;
58820;SDS011;70670;52.476;13.334;2023-10-09T08:45:54;9.80;;;5.13;;
58820;SDS011;70670;52.476;13.334;2023-10-09T08:48:26;6.15;;;4.28;;
58820;SDS011;70670;52.476;13.334;2023-10-09T08:50:53;10.18;;;4.88;;
58820;SDS011;70670;52.476;13.334;2023-10-09T08:53:20;5.82;;;4.55;;
58820;SDS011;70670;52.476;13.334;2023-10-09T08:55:47;12.43;;;5.22;;
58820;SDS011;70670;52.476;13.334;2023-10-09T08:58:16;11.65;;;4.75;;
58820;SDS011;70670;52.476;13.334;2023-10-09T09:00:44;8.20;;;4.60;;
58820;SDS011;70670;52.476;13.334;2023-10-09T09:03:14;10.38;;;4.75;;
58820;SDS011;70670;52.476;13.334;2023-10-09T09:05:44;8.40;;;4.75;;
58820;SDS011;70670;52.476;13.334;2023-10-09T09:08:22;6.65;;;4.25;;
58820;SDS011;70670;52.476;13.334;2023-10-09T09:11:00;7.85;;;4.65;;
58820;SDS011;70670;52.476;13.334;2023-10-09T09:16:40;7.82;;;4.40;;
58820;SDS011;70670;52.476;13.334;2023-10-09T09:19:09;8.00;;;4.18;;
58820;SDS011;70670;52.476;13.334;2023-10-09T09:21:39;9.57;;;4.50;;
58820;SDS011;70670;52.476;13.334;2023-10-09T09:24:09;5.32;;;4.15;;
58820;SDS011;70670;52.476;13.334;2023-10-09T09:26:52;8.07;;;4.55;;
58820;SDS011;70670;52.476;13.334;2023-10-09T09:32:04;6.13;;;4.07;;
58820;SDS011;70670;52.476;13.334;2023-10-09T09:34:50;5.13;;;4.20;;
58820;SDS011;70670;52.476;13.334;2023-10-09T09:37:20;7.32;;;4.20;;
58820;SDS011;70670;52.476;13.334;2023-10-09T09:39:47;8.95;;;3.95;;
58820;SDS011;70670;52.476;13.334;2023-10-09T09:42:17;7.43;;;4.55;;
58820;SDS011;70670;52.476;13.334;2023-10-09T09:44:43;8.50;;;4.65;;
58820;SDS011;70670;52.476;13.334;2023-10-09T09:47:14;7.85;;;4.55;;
58820;SDS011;70670;52.476;13.334;2023-10-09T09:49:52;13.32;;;4.95;;
58820;SDS011;70670;52.476;13.334;2023-10-09T09:52:37;6.68;;;4.97;;
58820;SDS011;70670;52.476;13.334;2023-10-09T09:55:06;10.05;;;5.05;;
58820;SDS011;70670;52.476;13.334;2023-10-09T09:57:44;6.75;;;4.80;;
58820;SDS011;70670;52.476;13.334;2023-10-09T10:00:11;8.10;;;4.93;;
58820;SDS011;70670;52.476;13.334;2023-10-09T10:02:54;6.97;;;4.57;;
58820;SDS011;70670;52.476;13.334;2023-10-09T10:05:24;5.78;;;4.32;;
58820;SDS011;70670;52.476;13.334;2023-10-09T10:07:58;7.00;;;4.57;;
58820;SDS011;70670;52.476;13.334;2023-10-09T10:10:34;8.55;;;4.20;;
58820;SDS011;70670;52.476;13.334;2023-10-09T10:13:07;8.45;;;5.50;;
58820;SDS011;70670;52.476;13.334;2023-10-09T10:18:22;10.20;;;5.15;;
58820;SDS011;70670;52.476;13.334;2023-10-09T10:23:32;11.07;;;5.85;;
58820;SDS011;70670;52.476;13.334;2023-10-09T10:29:14;7.53;;;5.72;;
58820;SDS011;70670;52.476;13.334;2023-10-09T10:32:00;7.65;;;5.55;;
58820;SDS011;70670;52.476;13.334;2023-10-09T10:34:51;8.93;;;6.38;;
58820;SDS011;70670;52.476;13.334;2023-10-09T10:37:38;8.40;;;6.13;;
58820;SDS011;70670;52.476;13.334;2023-10-09T10:40:26;11.98;;;6.75;;
58820;SDS011;70670;52.476;13.334;2023-10-09T10:43:14;13.23;;;7.15;;
58820;SDS011;70670;52.476;13.334;2023-10-09T10:46:03;12.38;;;6.50;;
58820;SDS011;70670;52.476;13.334;2023-10-09T10:48:36;9.65;;;6.70;;
58820;SDS011;70670;52.476;13.334;2023-10-09T10:51:05;13.32;;;6.97;;
58820;SDS011;70670;52.476;13.334;2023-10-09T10:53:31;10.63;;;7.30;;
58820;SDS011;70670;52.476;13.334;2023-10-09T10:56:13;9.82;;;6.72;;
58820;SDS011;70670;52.476;13.334;2023-10-09T10:58:42;10.63;;;7.38;;
58820;SDS011;70670;52.476;13.334;2023-10-09T11:01:37;8.85;;;6.57;;
58820;SDS011;70670;52.476;13.334;2023-10-09T11:04:25;7.88;;;6.50;;
58820;SDS011;70670;52.476;13.334;2023-10-09T11:06:58;8.88;;;6.95;;
58820;SDS011;70670;52.476;13.334;2023-10-09T11:09:56;10.32;;;7.03;;
58820;SDS011;70670;52.476;13.334;2023-10-09T11:12:28;9.15;;;6.90;;
58820;SDS011;70670;52.476;13.334;2023-10-09T11:15:12;12.07;;;6.40;;
58820;SDS011;70670;52.476;13.334;2023-10-09T11:18:04;11.38;;;7.70;;
58820;SDS011;70670;52.476;13.334;2023-10-09T11:20:34;12.85;;;7.18;;
58820;SDS011;70670;52.476;13.334;2023-10-09T11:23:01;11.05;;;6.50;;
58820;SDS011;70670;52.476;13.334;2023-10-09T11:25:37;9.10;;;6.47;;
58820;SDS011;70670;52.476;13.334;2023-10-09T11:28:18;7.82;;;6.00;;
58820;SDS011;70670;52.476;13.334;2023-10-09T11:31:11;11.65;;;6.57;;
58820;SDS011;70670;52.476;13.334;2023-10-09T11:33:46;8.27;;;6.80;;
58820;SDS011;70670;52.476;13.334;2023-10-09T11:36:20;8.45;;;6.50;;
58820;SDS011;70670;52.476;13.334;2023-10-09T11:38:57;8.77;;;6.80;;
58820;SDS011;70670;52.476;13.334;2023-10-09T11:41:41;10.80;;;6.70;;
58820;SDS011;70670;52.476;13.334;2023-10-09T11:44:07;8.07;;;6.07;;
58820;SDS011;70670;52.476;13.334;2023-10-09T11:46:56;10.27;;;6.28;;
58820;SDS011;70670;52.476;13.334;2023-10-09T11:49:56;8.43;;;6.22;;
58820;SDS011;70670;52.476;13.334;2023-10-09T11:52:41;9.65;;;6.07;;
58820;SDS011;70670;52.476;13.334;2023-10-09T11:55:22;12.68;;;7.22;;
58820;SDS011;70670;52.476;13.334;2023-10-09T11:57:51;12.07;;;8.15;;
58820;SDS011;70670;52.476;13.334;2023-10-09T12:00:17;12.55;;;7.55;;
58820;SDS011;70670;52.476;13.334;2023-10-09T12:02:54;8.85;;;7.43;;
58820;SDS011;70670;52.476;13.334;2023-10-09T12:05:21;14.98;;;6.85;;
58820;SDS011;70670;52.476;13.334;2023-10-09T12:07:48;9.40;;;6.45;;
58820;SDS011;70670;52.476;13.334;2023-10-09T12:10:22;10.02;;;7.30;;
58820;SDS011;70670;52.476;13.334;2023-10-09T12:12:51;11.85;;;7.10;;
58820;SDS011;70670;52.476;13.334;2023-10-09T12:15:17;10.63;;;7.20;;
58820;SDS011;70670;52.476;13.334;2023-10-09T12:17:44;14.25;;;6.82;;
58820;SDS011;70670;52.476;13.334;2023-10-09T12:20:15;11.18;;;6.25;;
58820;SDS011;70670;52.476;13.334;2023-10-09T12:23:00;9.40;;;6.63;;
58820;SDS011;70670;52.476;13.334;2023-10-09T12:25:31;9.63;;;7.32;;
58820;SDS011;70670;52.476;13.334;2023-10-09T12:27:59;9.40;;;6.93;;
58820;SDS011;70670;52.476;13.334;2023-10-09T12:30:29;9.57;;;7.22;;
58820;SDS011;70670;52.476;13.334;2023-10-09T12:32:56;13.63;;;7.90;;
58820;SDS011;70670;52.476;13.334;2023-10-09T12:35:23;10.55;;;8.68;;
58820;SDS011;70670;52.476;13.334;2023-10-09T12:37:50;13.95;;;8.07;;
58820;SDS011;70670;52.476;13.334;2023-10-09T12:40:22;12.23;;;8.65;;
58820;SDS011;70670;52.476;13.334;2023-10-09T12:42:54;11.70;;;7.93;;
58820;SDS011;70670;52.476;13.334;2023-10-09T12:45:24;10.68;;;8.15;;
58820;SDS011;70670;52.476;13.334;2023-10-09T12:47:58;12.15;;;9.40;;
58820;SDS011;70670;52.476;13.334;2023-10-09T12:50:27;12.50;;;10.02;;
58820;SDS011;70670;52.476;13.334;2023-10-09T12:52:57;13.07;;;9.85;;
58820;SDS011;70670;52.476;13.334;2023-10-09T12:55:35;13.38;;;9.60;;
58820;SDS011;70670;52.476;13.334;2023-10-09T12:58:07;13.85;;;10.68;;
58820;SDS011;70670;52.476;13.334;2023-10-09T13:03:03;15.00;;;10.40;;
58820;SDS011;70670;52.476;13.334;2023-10-09T13:05:39;15.45;;;10.40;;
58820;SDS011;70670;52.476;13.334;2023-10-09T13:08:11;15.60;;;10.15;;
58820;SDS011;70670;52.476;13.334;2023-10-09T13:10:37;16.80;;;10.02;;
58820;SDS011;70670;52.476;13.334;2023-10-09T13:13:03;16.95;;;10.43;;
58820;SDS011;70670;52.476;13.334;2023-10-09T13:15:31;14.05;;;10.10;;
58820;SDS011;70670;52.476;13.334;2023-10-09T13:18:08;12.55;;;10.13;;
58820;SDS011;70670;52.476;13.334;2023-10-09T13:20:33;16.10;;;11.23;;
58820;SDS011;70670;52.476;13.334;2023-10-09T13:23:00;17.92;;;10.75;;
58820;SDS011;70670;52.476;13.334;2023-10-09T13:25:26;16.60;;;11.13;;
58820;SDS011;70670;52.476;13.334;2023-10-09T13:28:03;16.65;;;10.95;;
58820;SDS011;70670;52.476;13.334;2023-10-09T13:30:29;13.90;;;10.25;;
58820;SDS011;70670;52.476;13.334;2023-10-09T13:32:54;14.93;;;10.77;;
58820;SDS011;70670;52.476;13.334;2023-10-09T13:35:20;16.08;;;11.35;;
58820;SDS011;70670;52.476;13.334;2023-10-09T13:38:02;12.50;;;10.23;;
58820;SDS011;70670;52.476;13.334;2023-10-09T13:40:35;12.68;;;9.02;;
58820;SDS011;70670;52.476;13.334;2023-10-09T13:43:02;16.27;;;9.18;;
58820;SDS011;70670;52.476;13.334;2023-10-09T13:45:28;15.10;;;9.20;;
58820;SDS011;70670;52.476;13.334;2023-10-09T13:47:54;12.43;;;8.57;;
58820;SDS011;70670;52.476;13.334;2023-10-09T13:50:24;12.57;;;8.68;;
58820;SDS011;70670;52.476;13.334;2023-10-09T13:52:54;10.50;;;8.38;;
58820;SDS011;70670;52.476;13.334;2023-10-09T13:55:21;11.07;;;8.15;;
58820;SDS011;70670;52.476;13.334;2023-10-09T13:57:47;15.52;;;9.00;;
58820;SDS011;70670;52.476;13.334;2023-10-09T14:00:13;11.18;;;8.82;;
58820;SDS011;70670;52.476;13.334;2023-10-09T14:02:45;13.32;;;9.20;;
58820;SDS011;70670;52.476;13.334;2023-10-09T14:05:12;11.00;;;8.88;;
58820;SDS011;70670;52.476;13.334;2023-10-09T14:07:39;14.57;;;10.27;;
58820;SDS011;70670;52.476;13.334;2023-10-09T14:10:06;14.45;;;9.85;;
58820;SDS011;70670;52.476;13.334;2023-10-09T14:12:43;11.52;;;9.18;;
58820;SDS011;70670;52.476;13.334;2023-10-09T14:15:09;14.43;;;10.30;;
58820;SDS011;70670;52.476;13.334;2023-10-09T14:17:42;15.70;;;11.15;;
58820;SDS011;70670;52.476;13.334;2023-10-09T14:20:08;11.85;;;10.27;;
58820;SDS011;70670;52.476;13.334;2023-10-09T14:22:56;15.00;;;11.35;;
58820;SDS011;70670;52.476;13.334;2023-10-09T14:25:34;15.18;;;11.90;;
58820;SDS011;70670;52.476;13.334;2023-10-09T14:28:08;15.15;;;11.98;;
58820;SDS011;70670;52.476;13.334;2023-10-09T14:30:35;16.77;;;12.15;;
58820;SDS011;70670;52.476;13.334;2023-10-09T14:33:07;15.52;;;11.45;;
58820;SDS011;70670;52.476;13.334;2023-10-09T14:35:39;17.02;;;11.85;;
58820;SDS011;70670;52.476;13.334;2023-10-09T14:38:06;14.93;;;11.00;;
58820;SDS011;70670;52.476;13.334;2023-10-09T14:40:41;12.88;;;10.77;;
58820;SDS011;70670;52.476;13.334;2023-10-09T14:43:10;13.18;;;11.32;;
58820;SDS011;70670;52.476;13.334;2023-10-09T14:45:45;12.18;;;10.88;;
58820;SDS011;70670;52.476;13.334;2023-10-09T14:48:14;12.13;;;10.85;;
58820;SDS011;70670;52.476;13.334;2023-10-09T14:50:48;14.93;;;11.38;;
58820;SDS011;70670;52.476;13.334;2023-10-09T14:53:14;14.13;;;11.00;;
58820;SDS011;70670;52.476;13.334;2023-10-09T14:55:41;13.52;;;11.18;;
58820;SDS011;70670;52.476;13.334;2023-10-09T14:58:10;16.63;;;11.50;;
58820;SDS011;70670;52.476;13.334;2023-10-09T15:00:36;14.57;;;11.90;;
58820;SDS011;70670;52.476;13.334;2023-10-09T15:03:03;17.75;;;11.95;;
58820;SDS011;70670;52.476;13.334;2023-10-09T15:05:29;14.95;;;11.32;;
58820;SDS011;70670;52.476;13.334;2023-10-09T15:07:56;16.40;;;11.50;;
58820;SDS011;70670;52.476;13.334;2023-10-09T15:10:22;17.15;;;10.63;;
58820;SDS011;70670;52.476;13.334;2023-10-09T15:12:49;13.68;;;9.25;;
58820;SDS011;70670;52.476;13.334;2023-10-09T15:15:15;12.65;;;9.82;;
58820;SDS011;70670;52.476;13.334;2023-10-09T15:17:42;12.98;;;9.55;;
58820;SDS011;70670;52.476;13.334;2023-10-09T15:20:13;14.75;;;10.43;;
58820;SDS011;70670;52.476;13.334;2023-10-09T15:22:43;12.90;;;9.18;;
58820;SDS011;70670;52.476;13.334;2023-10-09T15:25:10;10.07;;;8.98;;
58820;SDS011;70670;52.476;13.334;2023-10-09T15:27:45;9.65;;;8.43;;
58820;SDS011;70670;52.476;13.334;2023-10-09T15:30:11;13.30;;;9.50;;
58820;SDS011;70670;52.476;13.334;2023-10-09T15:32:42;13.32;;;9.55;;
58820;SDS011;70670;52.476;13.334;2023-10-09T15:35:08;11.52;;;9.90;;